Time;durP1;ratioP1;P1;durP2;ratioP2;P2;SDS_P1;SDS_P2;PMS_P1;PMS_P2;Temp;Humidity;BMP_temperature;BMP_pressure;BME280_temperature;BME280_humidity;BME280_pressure;Samples;Min_cycle;Max_cycle;Signal;HPM_P1;HPM_P2
2021/12/15 00:00:30;;;;;;;46.83;28.33;;;;;;;9.95;85.95;102234.09;5018745;28;20465;-70
2021/12/15 00:02:56;;;;;;;55.87;29.57;;;;;;;9.68;87.00;102239.19;5018954;28;20413;-72
2021/12/15 00:05:24;;;;;;;45.97;26.77;;;;;;;9.95;85.95;102236.72;5018668;28;20210;-71
2021/12/15 00:07:52;;;;;;;46.33;28.33;;;;;;;10.10;85.34;102237.25;5018543;28;20229;-71
2021/12/15 00:10:18;;;;;;;47.67;26.70;;;;;;;10.13;85.07;102235.59;5019203;28;20414;-73
2021/12/15 00:12:44;;;;;;;45.27;27.10;;;;;;;9.85;86.61;102239.81;5027570;28;20564;-73
2021/12/15 00:15:10;;;;;;;44.03;27.00;;;;;;;9.83;86.83;102239.75;5038040;28;20782;-71
2021/12/15 00:17:36;;;;;;;45.20;26.70;;;;;;;9.96;85.79;102233.28;5038290;28;20281;-71
2021/12/15 00:20:07;;;;;;;44.90;27.57;;;;;;;10.28;85.37;102231.81;5038013;28;20238;-72
2021/12/15 00:22:32;;;;;;;44.60;25.50;;;;;;;10.11;86.03;102235.56;5038696;28;20714;-69
2021/12/15 00:24:58;;;;;;;43.73;26.43;;;;;;;9.94;86.41;102235.84;5046743;28;20414;-68
2021/12/15 00:27:24;;;;;;;43.97;25.37;;;;;;;9.70;87.03;102242.72;5038471;28;20170;-70
2021/12/15 00:29:50;;;;;;;44.57;26.57;;;;;;;10.09;85.74;102238.09;5037360;28;20182;-69
2021/12/15 00:32:15;;;;;;;37.70;24.33;;;;;;;9.94;86.74;102247.97;5038618;28;20419;-69
2021/12/15 00:34:41;;;;;;;43.67;26.67;;;;;;;10.00;86.65;102242.97;5038149;28;20808;-67
2021/12/15 00:37:07;;;;;;;48.10;27.43;;;;;;;9.80;88.03;102241.38;5038099;28;20181;-69
2021/12/15 00:39:32;;;;;;;44.53;28.30;;;;;;;10.20;85.70;102240.19;5037711;28;20870;-69
2021/12/15 00:41:59;;;;;;;44.10;25.60;;;;;;;9.71;88.34;102245.38;5037954;28;20170;-68
2021/12/15 00:44:25;;;;;;;43.73;26.00;;;;;;;10.01;87.55;102244.75;5038021;28;20444;-70
2021/12/15 00:46:52;;;;;;;48.17;27.30;;;;;;;10.40;85.75;102249.63;5028931;28;20417;-69
2021/12/15 00:49:18;;;;;;;40.87;25.30;;;;;;;10.17;85.88;102258.34;5025684;28;20277;-70
2021/12/15 00:51:44;;;;;;;44.83;24.97;;;;;;;9.89;87.67;102252.09;5041509;28;20461;-70
2021/12/15 00:54:10;;;;;;;44.67;26.07;;;;;;;9.72;88.12;102254.97;5042668;28;20470;-70
2021/12/15 00:56:35;;;;;;;43.70;25.00;;;;;;;9.82;88.16;102251.00;5041954;28;20210;-70
2021/12/15 00:59:04;;;;;;;39.03;23.83;;;;;;;9.97;87.74;102255.88;5041676;28;20421;-71
2021/12/15 01:01:29;;;;;;;43.93;25.63;;;;;;;9.91;87.49;102258.28;5042237;28;20253;-71
2021/12/15 01:03:55;;;;;;;40.93;25.50;;;;;;;9.76;87.52;102259.47;5029514;28;20535;-71
2021/12/15 01:06:21;;;;;;;38.87;23.90;;;;;;;9.97;86.85;102244.56;5054345;28;20525;-73
2021/12/15 01:08:54;;;;;;;41.17;24.60;;;;;;;9.94;87.79;102245.34;5025841;28;20410;-69
2021/12/15 01:11:48;;;;;;;41.17;25.77;;;;;;;10.21;85.91;102253.28;5026745;28;20471;-68
2021/12/15 01:19:52;;;;;;;41.90;24.77;;;;;;;10.31;85.37;102251.91;5022595;28;20498;-69
2021/12/15 01:22:25;;;;;;;38.30;23.60;;;;;;;10.00;86.28;102248.19;5021605;28;20388;-69
2021/12/15 01:24:55;;;;;;;37.57;23.90;;;;;;;10.27;86.08;102250.91;5021409;28;20496;-69
2021/12/15 01:27:21;;;;;;;38.23;23.37;;;;;;;10.21;85.74;102255.00;5020745;28;20417;-68
2021/12/15 01:29:46;;;;;;;36.20;24.20;;;;;;;10.13;86.08;102261.66;5054366;28;20664;-69
2021/12/15 01:32:12;;;;;;;36.20;23.60;;;;;;;10.20;86.04;102255.81;5022410;28;20417;-67
2021/12/15 01:34:38;;;;;;;37.23;24.40;;;;;;;10.03;86.92;102256.13;5021675;28;20442;-70
2021/12/15 01:37:04;;;;;;;40.40;25.20;;;;;;;10.19;85.97;102251.44;5022120;28;20270;-69
2021/12/15 01:39:30;;;;;;;36.20;22.63;;;;;;;10.29;85.69;102250.94;5024390;28;20201;-70
2021/12/15 01:41:56;;;;;;;39.30;23.27;;;;;;;10.24;85.68;102252.50;5041103;28;20399;-71
2021/12/15 01:46:59;;;;;;;35.43;21.53;;;;;;;10.06;85.96;102245.78;5041389;28;20796;-68
2021/12/15 01:49:46;;;;;;;37.70;24.33;;;;;;;10.26;85.46;102254.31;5040975;28;20482;-70
2021/12/15 01:52:20;;;;;;;36.70;24.73;;;;;;;10.25;85.79;102243.84;5040689;28;20544;-71
2021/12/15 01:54:59;;;;;;;36.47;23.83;;;;;;;10.37;84.93;102249.53;5029642;28;20424;-70
2021/12/15 01:57:29;;;;;;;37.53;24.60;;;;;;;10.39;85.25;102250.47;5020912;28;20479;-70
2021/12/15 01:59:55;;;;;;;37.27;25.17;;;;;;;10.50;84.63;102248.25;5020940;28;20868;-71
2021/12/15 02:02:20;;;;;;;34.57;22.50;;;;;;;10.54;84.00;102246.59;5020045;28;20384;-70
2021/12/15 02:04:47;;;;;;;37.47;23.30;;;;;;;10.52;84.17;102243.06;5021357;28;20501;-71
2021/12/15 02:07:16;;;;;;;36.37;24.30;;;;;;;10.38;85.70;102245.22;5021094;28;20253;-70
2021/12/15 02:10:01;;;;;;;37.40;25.47;;;;;;;10.26;86.04;102253.44;5020668;28;20385;-70
2021/12/15 02:12:32;;;;;;;36.80;24.07;;;;;;;10.43;85.48;102249.75;5031354;28;20427;-69
2021/12/15 02:14:58;;;;;;;42.53;27.50;;;;;;;10.31;85.68;102264.03;5052265;28;20487;-70
2021/12/15 02:17:25;;;;;;;43.93;25.47;;;;;;;10.13;86.07;102262.53;5060694;28;20466;-69
2021/12/15 02:19:50;;;;;;;39.37;25.43;;;;;;;10.40;85.19;102261.78;5040706;28;20472;-70
2021/12/15 02:22:16;;;;;;;37.77;23.47;;;;;;;10.22;86.47;102262.00;5039381;28;20396;-69
2021/12/15 02:24:43;;;;;;;38.93;26.10;;;;;;;10.28;86.02;102251.75;5040848;28;20185;-69
2021/12/15 02:27:11;;;;;;;41.97;26.07;;;;;;;10.31;85.49;102246.69;5040178;28;20447;-69
2021/12/15 02:29:41;;;;;;;42.43;27.00;;;;;;;10.52;84.75;102246.56;5022313;28;20400;-69
2021/12/15 02:37:20;;;;;;;44.80;26.33;;;;;;;10.58;85.31;102238.94;5059940;28;20489;-68
2021/12/15 02:39:51;;;;;;;43.20;26.03;;;;;;;10.54;84.72;102251.81;5054846;28;20583;-69
2021/12/15 02:42:18;;;;;;;43.33;25.53;;;;;;;10.44;86.17;102243.72;5042045;28;20391;-69
2021/12/15 02:44:45;;;;;;;47.53;27.37;;;;;;;10.50;85.41;102248.25;5039185;28;20789;-70
2021/12/15 02:47:17;;;;;;;40.50;26.20;;;;;;;10.64;84.78;102250.44;5020224;28;20389;-69
2021/12/15 02:49:46;;;;;;;48.50;26.97;;;;;;;10.74;84.00;102242.06;5048710;28;20405;-70
2021/12/15 02:52:11;;;;;;;47.20;26.80;;;;;;;10.47;85.58;102245.50;5019821;28;20484;-70
2021/12/15 02:54:37;;;;;;;44.23;27.10;;;;;;;10.41;86.27;102247.91;5019959;28;20503;-69
2021/12/15 02:57:07;;;;;;;49.43;29.57;;;;;;;10.25;86.55;102255.16;5020266;28;20478;-68
2021/12/15 02:59:42;;;;;;;48.67;26.97;;;;;;;10.24;85.88;102261.22;5019763;28;20285;-69
2021/12/15 03:02:24;;;;;;;44.53;26.47;;;;;;;10.03;87.67;102256.13;5020379;28;20400;-69
2021/12/15 03:05:04;;;;;;;47.53;26.87;;;;;;;10.23;87.20;102250.75;5019769;28;20811;-70
2021/12/15 03:07:46;;;;;;;46.93;27.63;;;;;;;10.18;87.20;102254.91;5039790;28;20448;-72
2021/12/15 03:15:44;;;;;;;43.67;27.23;;;;;;;10.77;85.72;102236.94;5039488;28;20395;-72
2021/12/15 03:18:14;;;;;;;45.40;25.93;;;;;;;10.44;86.32;102251.53;5039437;28;20396;-72
2021/12/15 03:20:50;;;;;;;44.80;28.40;;;;;;;10.60;85.39;102234.66;5020252;28;20455;-73
2021/12/15 03:23:46;;;;;;;47.90;27.27;;;;;;;10.52;85.56;102241.34;5019450;28;20797;-72
2021/12/15 03:26:15;;;;;;;45.93;26.20;;;;;;;10.67;84.27;102243.56;5019231;28;20422;-72
2021/12/15 03:37:04;;;;;;;43.40;27.53;;;;;;;10.55;83.96;102251.00;5019621;28;20838;-70
2021/12/15 03:39:33;;;;;;;45.30;28.20;;;;;;;10.91;83.92;102237.41;5023409;28;20534;-71
2021/12/15 03:42:03;;;;;;;45.77;27.30;;;;;;;11.11;83.07;102236.31;5031661;28;20524;-69
2021/12/15 03:44:31;;;;;;;45.13;27.97;;;;;;;10.73;84.17;102235.06;5030716;28;20433;-70
2021/12/15 03:46:58;;;;;;;51.97;28.53;;;;;;;10.64;85.14;102230.44;5019919;28;20475;-70
2021/12/15 03:49:23;;;;;;;53.57;29.43;;;;;;;10.49;85.39;102242.97;5018584;28;20412;-71
2021/12/15 03:51:49;;;;;;;52.37;27.90;;;;;;;10.54;86.48;102241.38;5018846;28;20865;-70
2021/12/15 03:54:14;;;;;;;52.97;28.00;;;;;;;10.51;85.59;102246.50;5018907;28;20282;-71
2021/12/15 03:56:42;;;;;;;50.50;28.70;;;;;;;10.49;86.13;102245.59;5027408;28;20178;-71
2021/12/15 03:59:07;;;;;;;51.50;28.40;;;;;;;10.58;85.20;102236.34;5038370;28;20185;-70
2021/12/15 04:01:34;;;;;;;55.10;30.13;;;;;;;10.45;86.34;102234.16;5038391;28;20807;-71
2021/12/15 04:04:01;;;;;;;59.33;31.67;;;;;;;10.47;86.49;102234.19;5038534;28;20482;-71
2021/12/15 04:06:38;;;;;;;50.43;26.70;;;;;;;10.45;86.62;102235.03;5025386;28;20503;-71
2021/12/15 04:09:06;;;;;;;56.60;27.77;;;;;;;10.63;85.47;102239.09;5018578;28;20509;-71
2021/12/15 04:11:34;;;;;;;58.57;29.10;;;;;;;10.61;85.84;102246.00;5018432;28;20487;-70
2021/12/15 04:14:01;;;;;;;54.00;28.70;;;;;;;10.68;85.32;102240.13;5019939;28;20422;-70
2021/12/15 04:18:59;;;;;;;49.30;27.73;;;;;;;10.60;86.28;102252.03;5037651;28;20400;-71
2021/12/15 04:21:24;;;;;;;52.47;28.17;;;;;;;10.74;85.75;102248.19;5039113;28;20837;-69
2021/12/15 04:23:52;;;;;;;50.60;28.80;;;;;;;10.71;85.94;102237.63;5038910;28;20436;-65
2021/12/15 04:26:17;;;;;;;52.20;28.17;;;;;;;10.68;85.86;102242.75;5027430;28;20186;-66
2021/12/15 04:28:43;;;;;;;49.70;27.07;;;;;;;10.64;86.38;102253.03;5018386;28;20400;-65
2021/12/15 04:31:10;;;;;;;51.00;26.20;;;;;;;10.64;86.63;102246.09;5019076;28;20170;-64
2021/12/15 04:33:36;;;;;;;50.00;27.43;;;;;;;11.11;84.81;102248.50;5018366;28;20643;-64
2021/12/15 04:36:04;;;;;;;55.63;29.23;;;;;;;11.04;84.52;102246.50;5026516;28;20705;-66
2021/12/15 04:38:30;;;;;;;58.50;29.83;;;;;;;11.20;84.06;102247.88;5038792;28;20166;-65
2021/12/15 04:40:58;;;;;;;51.00;26.77;;;;;;;11.08;84.51;102243.16;5035778;28;20443;-65
2021/12/15 04:43:24;;;;;;;60.90;29.50;;;;;;;10.74;86.17;102245.56;5037361;28;20398;-64
2021/12/15 04:45:49;;;;;;;58.63;28.30;;;;;;;10.87;85.29;102243.38;5031555;28;20396;-64
2021/12/15 04:48:15;;;;;;;56.60;29.00;;;;;;;10.64;86.96;102253.03;5018505;28;20179;-64
2021/12/15 04:50:41;;;;;;;53.53;27.70;;;;;;;10.94;86.63;102250.53;5039619;28;20179;-64
2021/12/15 04:53:07;;;;;;;61.53;30.90;;;;;;;11.02;85.54;102248.19;5018180;28;20223;-65
2021/12/15 04:55:35;;;;;;;56.77;28.60;;;;;;;11.05;85.54;102249.16;5033900;28;20441;-64
2021/12/15 04:58:03;;;;;;;60.00;28.30;;;;;;;10.81;86.08;102237.94;5018672;28;20397;-66
2021/12/15 05:00:32;;;;;;;65.30;29.77;;;;;;;10.92;85.84;102244.41;5032015;28;20898;-65
2021/12/15 05:02:59;;;;;;;57.10;28.77;;;;;;;11.07;85.38;102241.41;5018008;28;20388;-64
2021/12/15 05:05:26;;;;;;;60.73;28.53;;;;;;;11.07;85.43;102239.66;5018271;28;20798;-65
2021/12/15 05:07:51;;;;;;;60.93;29.60;;;;;;;10.86;86.66;102238.97;5018008;28;20449;-65
2021/12/15 05:10:18;;;;;;;70.70;31.57;;;;;;;10.91;86.31;102234.78;5030841;28;20705;-64
2021/12/15 05:12:44;;;;;;;67.80;31.50;;;;;;;10.89;86.72;102241.69;5038068;28;20221;-66
2021/12/15 05:15:10;;;;;;;74.53;32.27;;;;;;;10.85;87.45;102243.31;5037770;28;20478;-64
2021/12/15 05:17:35;;;;;;;74.67;31.43;;;;;;;10.50;88.83;102252.56;5037713;28;20496;-64
2021/12/15 05:20:04;;;;;;;70.03;33.10;;;;;;;10.62;88.90;102245.13;5026878;28;20218;-64
2021/12/15 05:22:30;;;;;;;76.37;30.67;;;;;;;10.59;89.62;102247.66;5033363;28;20182;-66
2021/12/15 05:24:56;;;;;;;74.60;33.10;;;;;;;10.72;87.90;102249.84;5017904;28;20657;-64
2021/12/15 05:27:22;;;;;;;82.40;33.50;;;;;;;10.70;88.88;102251.53;5018354;28;20413;-64
2021/12/15 05:29:48;;;;;;;78.47;32.37;;;;;;;10.87;88.93;102253.81;5033816;28;20437;-65
2021/12/15 05:32:18;;;;;;;75.93;31.90;;;;;;;10.71;88.68;102258.50;5019440;28;20179;-64
2021/12/15 05:34:45;;;;;;;79.43;33.57;;;;;;;10.82;88.19;102258.84;5022186;28;20372;-66
2021/12/15 05:37:11;;;;;;;73.17;31.80;;;;;;;10.69;88.67;102262.78;5020591;28;20657;-63
2021/12/15 05:39:36;;;;;;;88.53;36.07;;;;;;;10.79;88.13;102258.75;5026580;28;20460;-64
2021/12/15 05:42:03;;;;;;;90.80;33.87;;;;;;;10.81;87.06;102262.31;5024196;28;20265;-64
2021/12/15 05:44:28;;;;;;;94.37;36.50;;;;;;;10.84;87.65;102253.69;5021197;28;20432;-65
2021/12/15 05:46:55;;;;;;;84.50;34.40;;;;;;;11.08;86.86;102257.09;5034994;28;20391;-64
2021/12/15 05:49:21;;;;;;;77.27;32.87;;;;;;;10.97;87.00;102261.06;5041456;28;20521;-65
2021/12/15 05:51:47;;;;;;;81.20;36.13;;;;;;;11.10;87.11;102260.63;5040115;28;20593;-64
2021/12/15 05:54:13;;;;;;;94.67;36.97;;;;;;;11.01;86.76;102257.72;5040057;28;20228;-64
2021/12/15 05:56:38;;;;;;;79.00;34.20;;;;;;;11.12;86.76;102250.25;5030602;28;20434;-64
2021/12/15 05:59:04;;;;;;;78.00;34.33;;;;;;;11.03;86.83;102256.06;5026038;28;20182;-65
2021/12/15 06:01:30;;;;;;;87.67;35.60;;;;;;;10.95;87.58;102260.16;5039109;28;20178;-64
2021/12/15 06:03:56;;;;;;;82.87;34.93;;;;;;;10.74;88.92;102262.94;5040898;28;20175;-64
2021/12/15 06:06:21;;;;;;;94.00;35.43;;;;;;;10.90;87.35;102261.72;5038870;28;20193;-64
2021/12/15 06:08:47;;;;;;;86.37;35.47;;;;;;;11.01;87.26;102259.47;5022047;28;20447;-65
2021/12/15 06:11:12;;;;;;;89.47;37.60;;;;;;;11.03;86.84;102261.28;5026614;28;20260;-66
2021/12/15 06:13:38;;;;;;;98.80;37.33;;;;;;;11.07;86.61;102270.97;5034223;28;20482;-66
2021/12/15 06:16:05;;;;;;;87.73;37.73;;;;;;;11.16;86.49;102266.91;5030013;28;20183;-66
2021/12/15 06:18:31;;;;;;;101.40;38.30;;;;;;;11.08;87.22;102269.25;5035331;28;20170;-67
2021/12/15 06:20:56;;;;;;;95.50;38.20;;;;;;;10.91;87.68;102271.31;5038702;28;20438;-67
2021/12/15 06:23:22;;;;;;;86.67;37.70;;;;;;;11.10;86.73;102278.91;5020198;28;20180;-67
2021/12/15 06:25:55;;;;;;;90.50;37.30;;;;;;;11.26;86.32;102274.19;5021129;28;20166;-67
2021/12/15 06:28:22;;;;;;;88.10;41.50;;;;;;;11.16;86.79;102272.13;5019811;28;20821;-66
2021/12/15 06:30:48;;;;;;;89.37;37.10;;;;;;;10.84;87.52;102280.66;5020228;28;20437;-66
2021/12/15 06:33:14;;;;;;;81.93;40.13;;;;;;;11.25;86.23;102278.50;5022176;28;20392;-64
2021/12/15 06:35:41;;;;;;;88.63;39.57;;;;;;;11.15;87.14;102276.47;5040246;28;20236;-65
2021/12/15 06:38:06;;;;;;;81.80;39.47;;;;;;;11.12;86.77;102276.34;5041027;28;20819;-65
2021/12/15 06:40:33;;;;;;;82.93;36.07;;;;;;;11.00;87.42;102281.16;5039857;28;20447;-65
2021/12/15 06:42:59;;;;;;;86.23;37.33;;;;;;;11.27;86.51;102281.16;5038982;28;20174;-64
2021/12/15 06:45:32;;;;;;;82.27;37.90;;;;;;;11.31;85.72;102287.38;5040193;28;20392;-64
2021/12/15 06:58:50;;;;;;;86.43;37.90;;;;;;;10.94;86.46;102293.16;5036129;28;20594;-65
2021/12/15 07:01:16;;;;;;;85.63;38.40;;;;;;;11.10;86.25;102296.31;5026856;28;20550;-65
2021/12/15 07:03:42;;;;;;;85.43;37.70;;;;;;;11.18;86.60;102302.66;5036807;28;20185;-64
2021/12/15 07:06:07;;;;;;;82.80;40.17;;;;;;;11.09;86.27;102305.84;5056807;28;20449;-64
2021/12/15 07:08:33;;;;;;;77.37;39.23;;;;;;;10.78;88.18;102311.75;5042635;28;20177;-63
2021/12/15 07:11:00;;;;;;;82.20;38.67;;;;;;;11.21;86.27;102309.69;5051720;28;20177;-64
2021/12/15 07:13:26;;;;;;;87.10;39.57;;;;;;;11.15;85.87;102312.09;5051308;28;20427;-64
2021/12/15 07:15:59;;;;;;;79.83;38.40;;;;;;;11.08;86.61;102306.69;5050217;28;20399;-63
2021/12/15 07:18:37;;;;;;;73.10;37.50;;;;;;;11.06;87.45;102313.56;5057196;28;20438;-64
2021/12/15 07:21:08;;;;;;;72.00;36.50;;;;;;;11.12;86.95;102316.41;5032930;28;20463;-65
2021/12/15 07:23:33;;;;;;;71.43;36.93;;;;;;;11.16;86.54;102309.53;5050206;28;20695;-66
2021/12/15 07:25:59;;;;;;;69.17;36.17;;;;;;;11.26;86.18;102315.97;5038891;28;20444;-64
2021/12/15 07:28:24;;;;;;;68.30;35.07;;;;;;;11.07;85.97;102315.34;5043890;28;20192;-65
2021/12/15 07:30:50;;;;;;;70.13;36.07;;;;;;;11.40;85.13;102319.88;5058618;28;20180;-65
2021/12/15 07:33:16;;;;;;;57.30;32.30;;;;;;;11.49;84.22;102315.78;5054301;28;20567;-65
2021/12/15 07:35:42;;;;;;;68.10;36.43;;;;;;;11.19;85.22;102314.88;5054107;28;20482;-65
2021/12/15 07:38:08;;;;;;;70.07;35.63;;;;;;;10.92;87.28;102320.94;5045828;28;20203;-64
2021/12/15 07:40:34;;;;;;;60.60;35.00;;;;;;;11.03;86.84;102323.91;5044573;28;20439;-65
2021/12/15 07:43:09;;;;;;;64.40;34.07;;;;;;;11.37;85.46;102324.13;5038611;28;20413;-65
2021/12/15 07:45:46;;;;;;;62.80;33.13;;;;;;;11.25;85.77;102328.09;5041813;28;20416;-65
2021/12/15 07:48:15;;;;;;;56.70;32.60;;;;;;;11.21;86.02;102333.19;5044528;28;20784;-65
2021/12/15 07:50:43;;;;;;;53.13;32.20;;;;;;;11.50;84.37;102328.00;5052507;28;20642;-65
2021/12/15 07:53:08;;;;;;;53.40;31.33;;;;;;;11.58;83.91;102332.66;5053067;28;20444;-65
2021/12/15 07:55:35;;;;;;;53.70;31.53;;;;;;;11.45;84.57;102339.19;5034143;28;20412;-65
2021/12/15 07:58:02;;;;;;;48.00;30.47;;;;;;;11.22;85.19;102338.47;5032256;28;20174;-65
2021/12/15 08:00:28;;;;;;;45.00;28.60;;;;;;;11.39;84.85;102341.63;5028153;28;20472;-65
2021/12/15 08:02:53;;;;;;;48.00;28.97;;;;;;;11.49;84.34;102334.06;5038703;28;20417;-65
2021/12/15 08:05:19;;;;;;;47.90;30.13;;;;;;;11.74;83.11;102339.22;5027836;28;20241;-66
2021/12/15 08:07:44;;;;;;;48.60;29.67;;;;;;;11.39;84.16;102338.13;5018652;28;20217;-65
2021/12/15 08:10:11;;;;;;;51.10;28.37;;;;;;;11.34;84.45;102340.59;5024193;28;20556;-65
2021/12/15 08:12:39;;;;;;;47.83;30.53;;;;;;;11.27;84.96;102343.81;5036065;28;20198;-64
2021/12/15 08:15:07;;;;;;;50.40;30.30;;;;;;;11.52;83.21;102345.50;5022105;28;20408;-65
2021/12/15 08:17:33;;;;;;;49.20;29.37;;;;;;;11.02;85.53;102348.22;5031602;28;20411;-65
2021/12/15 08:19:58;;;;;;;46.70;30.70;;;;;;;11.22;85.04;102345.41;5037912;28;20435;-65
2021/12/15 08:22:24;;;;;;;27.70;20.20;;;;;;;12.77;82.24;102343.91;5037926;28;20780;-61
2021/12/15 08:24:49;;;;;;;33.53;24.20;;;;;;;12.98;79.21;102337.47;5037707;28;20247;-62
2021/12/15 08:27:15;;;;;;;36.03;25.23;;;;;;;12.58;80.32;102342.53;5037892;28;20198;-63
2021/12/15 08:29:41;;;;;;;36.60;26.50;;;;;;;12.78;77.99;102336.94;5038009;28;20261;-62
2021/12/15 08:32:06;;;;;;;39.27;27.50;;;;;;;12.39;79.27;102348.97;5042801;28;20169;-70
2021/12/15 08:34:32;;;;;;;39.03;27.10;;;;;;;11.54;82.21;102356.00;5044157;28;20449;-71
2021/12/15 08:36:57;;;;;;;39.07;29.40;;;;;;;12.07;80.69;102346.34;5048233;28;20174;-71
2021/12/15 08:39:23;;;;;;;43.43;28.47;;;;;;;11.52;83.00;102349.84;5053183;28;20246;-71
2021/12/15 08:41:48;;;;;;;40.20;27.37;;;;;;;11.38;83.18;102352.91;5044884;28;20174;-70
2021/12/15 08:44:14;;;;;;;40.93;27.40;;;;;;;10.98;85.14;102361.13;5045784;28;20174;-70
2021/12/15 08:46:43;;;;;;;42.70;29.13;;;;;;;11.20;84.40;102367.97;5052215;28;20166;-71
2021/12/15 08:49:13;;;;;;;41.40;26.87;;;;;;;11.12;84.30;102359.88;5035273;28;20167;-72
2021/12/15 08:51:39;;;;;;;42.33;27.80;;;;;;;11.10;84.78;102365.03;5050724;28;20427;-69
2021/12/15 08:54:09;;;;;;;40.03;28.13;;;;;;;11.23;84.48;102357.59;5047674;28;20805;-70
2021/12/15 08:56:35;;;;;;;42.40;28.60;;;;;;;11.04;85.20;102367.47;5042820;28;20425;-69
2021/12/15 08:59:01;;;;;;;49.20;30.27;;;;;;;11.17;84.53;102366.13;5053634;28;20434;-69
2021/12/15 09:01:27;;;;;;;45.90;29.50;;;;;;;11.28;84.20;102366.47;5042385;28;20455;-71
2021/12/15 09:03:52;;;;;;;43.97;29.13;;;;;;;11.36;83.80;102364.13;5048794;28;20186;-71
2021/12/15 09:06:18;;;;;;;45.07;30.17;;;;;;;11.27;84.24;102376.06;5049658;28;20504;-71
2021/12/15 09:08:45;;;;;;;47.23;31.20;;;;;;;11.29;84.02;102363.03;5046052;28;20232;-71
2021/12/15 09:11:14;;;;;;;43.20;29.30;;;;;;;10.93;85.52;102363.56;5057532;28;20424;-71
2021/12/15 09:13:42;;;;;;;44.40;30.83;;;;;;;11.53;83.18;102375.09;5047370;28;20413;-71
2021/12/15 09:16:10;;;;;;;44.20;28.97;;;;;;;11.11;84.75;102369.44;5050716;28;20395;-71
2021/12/15 09:18:37;;;;;;;45.37;30.87;;;;;;;11.14;84.64;102373.88;5055288;28;20484;-71
2021/12/15 09:21:03;;;;;;;43.40;30.17;;;;;;;11.17;84.83;102376.56;5043502;28;20449;-70
2021/12/15 09:23:29;;;;;;;46.80;29.80;;;;;;;11.44;83.39;102376.59;5055959;28;20413;-68
2021/12/15 09:25:55;;;;;;;44.07;28.60;;;;;;;11.17;84.27;102375.69;5049462;28;20489;-69
2021/12/15 09:28:20;;;;;;;43.27;30.43;;;;;;;11.25;84.12;102376.84;5047771;28;20232;-70
2021/12/15 09:30:48;;;;;;;48.07;31.10;;;;;;;11.20;84.10;102375.78;5056540;28;20177;-69
2021/12/15 09:33:19;;;;;;;49.83;31.07;;;;;;;11.25;83.80;102369.88;5061563;28;20236;-69
2021/12/15 09:35:47;;;;;;;42.27;29.67;;;;;;;11.13;84.29;102374.69;5067449;28;20640;-70
2021/12/15 09:38:14;;;;;;;42.43;29.37;;;;;;;11.48;83.35;102367.13;5063266;28;20386;-71
2021/12/15 09:40:40;;;;;;;46.93;30.60;;;;;;;11.37;83.22;102374.63;5061879;28;20913;-71
2021/12/15 09:43:06;;;;;;;48.30;32.57;;;;;;;11.33;83.58;102383.19;5060935;28;20443;-71
2021/12/15 09:45:54;;;;;;;45.13;30.20;;;;;;;11.36;83.38;102372.84;5061078;28;20176;-70
2021/12/15 10:04:59;;;;;;;45.33;29.87;;;;;;;11.26;83.63;102383.84;5039759;28;20431;-71
2021/12/15 10:18:44;;;;;;;45.30;30.27;;;;;;;11.23;82.81;102381.09;5038952;28;20398;-70
2021/12/15 10:21:33;;;;;;;46.60;31.33;;;;;;;11.21;83.12;102383.66;5040042;28;20443;-70
2021/12/15 10:23:58;;;;;;;43.50;28.20;;;;;;;10.93;84.57;102381.84;5040194;28;20697;-70
2021/12/15 10:26:24;;;;;;;46.20;30.20;;;;;;;11.22;83.72;102381.97;5040099;28;20405;-70
2021/12/15 10:28:53;;;;;;;46.63;32.20;;;;;;;11.44;82.74;102380.94;5040002;28;20202;-70
2021/12/15 10:31:21;;;;;;;46.90;31.20;;;;;;;11.07;83.75;102380.59;5040048;28;20395;-69
2021/12/15 10:33:52;;;;;;;49.93;31.73;;;;;;;11.26;83.04;102384.72;5040112;28;20454;-70
2021/12/15 10:36:25;;;;;;;47.90;31.77;;;;;;;11.37;82.59;102387.69;5042962;28;20390;-70
2021/12/15 10:38:56;;;;;;;43.83;31.30;;;;;;;11.73;81.30;102376.66;5046859;28;20403;-70
2021/12/15 10:41:23;;;;;;;44.23;31.70;;;;;;;11.68;81.11;102373.00;5042835;28;20503;-69
2021/12/15 10:43:53;;;;;;;49.43;31.93;;;;;;;11.55;81.68;102376.06;5042699;28;20529;-70
2021/12/15 10:46:23;;;;;;;46.97;32.00;;;;;;;11.37;82.07;102372.00;5041726;28;20459;-71
2021/12/15 10:48:54;;;;;;;52.00;33.30;;;;;;;11.43;82.22;102373.94;5042430;28;20819;-69
2021/12/15 10:51:29;;;;;;;47.33;30.00;;;;;;;11.05;83.66;102378.78;5043416;28;20488;-70
2021/12/15 10:53:57;;;;;;;47.50;31.30;;;;;;;11.40;82.34;102373.84;5041922;28;20417;-69
2021/12/15 10:56:27;;;;;;;49.00;30.73;;;;;;;11.43;82.29;102372.22;5040349;28;20376;-69
2021/12/15 10:58:57;;;;;;;47.90;32.07;;;;;;;11.61;81.76;102373.66;5039805;28;20535;-68
2021/12/15 11:01:52;;;;;;;45.40;31.13;;;;;;;11.55;81.80;102369.09;5039672;28;20489;-68
2021/12/15 11:04:23;;;;;;;54.30;33.70;;;;;;;11.69;81.38;102368.66;5039876;28;20403;-71
2021/12/15 11:07:02;;;;;;;49.23;31.90;;;;;;;11.41;81.65;102379.09;5042618;28;20417;-71
2021/12/15 11:09:31;;;;;;;49.67;33.53;;;;;;;11.70;81.59;102371.31;5042926;28;20404;-71
2021/12/15 11:12:04;;;;;;;46.17;32.70;;;;;;;11.82;80.53;102369.94;5045198;28;20396;-71
2021/12/15 11:14:33;;;;;;;46.93;30.90;;;;;;;11.53;81.67;102377.72;5040615;28;20421;-71
2021/12/15 11:17:35;;;;;;;48.73;32.30;;;;;;;11.74;80.96;102370.56;5039524;28;20471;-71
2021/12/15 11:20:06;;;;;;;49.07;32.90;;;;;;;11.39;81.89;102366.84;5038419;28;20468;-71
2021/12/15 11:22:40;;;;;;;45.30;29.10;;;;;;;11.40;82.06;102369.50;5039138;28;20399;-72
2021/12/15 11:25:13;;;;;;;46.33;31.37;;;;;;;11.45;81.82;102369.66;5039121;28;20401;-72
2021/12/15 11:27:40;;;;;;;45.77;31.60;;;;;;;11.71;80.91;102373.09;5049238;28;20867;-70
2021/12/15 11:30:10;;;;;;;49.17;30.70;;;;;;;11.51;81.27;102364.63;5058564;28;20400;-73
2021/12/15 11:32:47;;;;;;;45.13;30.07;;;;;;;11.24;81.87;102375.97;5059034;28;20447;-71
2021/12/15 11:35:28;;;;;;;46.27;30.13;;;;;;;11.80;80.27;102372.50;5060813;28;20440;-71
2021/12/15 11:37:58;;;;;;;48.03;31.10;;;;;;;11.55;80.98;102370.84;5058996;28;20795;-72
2021/12/15 11:40:29;;;;;;;47.63;32.47;;;;;;;11.74;80.04;102370.56;5058689;28;20517;-71
2021/12/15 11:42:54;;;;;;;49.67;31.70;;;;;;;11.97;79.45;102362.56;5058491;28;20394;-72
2021/12/15 11:45:20;;;;;;;46.00;29.67;;;;;;;11.75;79.83;102369.72;5058278;28;20426;-70
2021/12/15 11:47:45;;;;;;;45.83;29.50;;;;;;;11.79;79.94;102365.50;5058845;28;20169;-70
2021/12/15 11:50:15;;;;;;;44.90;30.33;;;;;;;11.45;80.90;102375.75;5058267;28;20216;-71
2021/12/15 11:52:43;;;;;;;47.20;29.10;;;;;;;11.45;80.78;102364.44;5057996;28;20225;-72
2021/12/15 11:55:27;;;;;;;43.83;28.83;;;;;;;11.44;80.43;102368.75;5058554;28;20413;-72
2021/12/15 11:57:53;;;;;;;46.20;30.27;;;;;;;11.45;80.81;102367.91;5058182;28;20422;-72
2021/12/15 12:00:21;;;;;;;40.53;28.97;;;;;;;11.29;81.41;102360.44;5058078;28;20844;-72
2021/12/15 12:02:53;;;;;;;42.30;29.03;;;;;;;11.45;80.58;102360.09;5057262;28;20436;-72
2021/12/15 12:05:19;;;;;;;44.03;28.37;;;;;;;11.68;79.33;102362.53;5058347;28;20797;-71
2021/12/15 12:07:52;;;;;;;45.23;28.37;;;;;;;11.46;80.29;102367.09;5058577;28;20436;-73
2021/12/15 12:10:22;;;;;;;40.70;27.30;;;;;;;11.72;79.06;102364.41;5057917;28;20252;-71
2021/12/15 12:12:54;;;;;;;41.07;26.90;;;;;;;11.24;79.97;102370.75;5058053;28;20726;-72
2021/12/15 12:15:23;;;;;;;39.97;28.43;;;;;;;11.33;80.00;102361.44;5058084;28;20515;-71
2021/12/15 12:17:51;;;;;;;40.60;28.17;;;;;;;11.49;79.43;102355.84;5058022;28;20455;-73
2021/12/15 12:20:29;;;;;;;44.17;27.33;;;;;;;11.77;79.06;102359.31;5057763;28;20753;-71
2021/12/15 12:22:56;;;;;;;43.53;29.10;;;;;;;11.60;78.35;102361.41;5057855;28;20785;-71